Sheridan County Airport
KSHR : now visible

Airfield :











YOU CAN JOIN US ON...

 
LOGIN :

Register | Disclaimer

   EN    FR    IT 

 









Legend :    VFR   Marginal VFR   IFR   Intensive IFR   Very Intensive IFR
Visi :
Ceiling :
>= 8 km
>= 3000ft
5 to 8 km
1000 to 3000 ft
1500m to 5 km
500 to 1000 ft
800 to 1500m
200 to 500 ft
< 800m
< 200 ft
Symbols :   Thunderstorms  Fog  Heavy snow  Heavy precipitations  Wind > 20 kt






- Airport Elevation : 4021 ft
- IATA code : SHR


KSHR - Sheridan County

CURRENT METAR :
  • 180553Z AUTO 18004KT 10SM CLR M12/M16 A3010 RMK AO2 SLP253 I6000 T11221161 11061 21144 51008 $

EXPIRED METARs :
  • 180453Z AUTO 00000KT 10SM CLR M13/M16 A3010 RMK AO2 SLP251 I1000 T11331156 $
  • 180353Z AUTO 00000KT 10SM CLR M12/M14 A3008 RMK AO2 SLP244 I1000 T11221144 $

TAF KSHR
Valid from the 18 at 06:00 until the 19 at 06:00 UTC


180534Z 1806/1906 26005KT P6SM VCSH SCT100
FM181100 31011KT 3SM -SN BR SCT020 BKN030 OVC050
FM181300 32006KT 5SM -SN BR SCT015 BKN025 OVC040
FM181500 32005KT P6SM VCSH BKN030



MET'MAP, your aeronautical weather chart ! - Copyright ORBIFLY December 2007 - Disclaimer

ORBIFLY MET'MAP TEAM :

Programming & Development : Alexandra Zaïnal
Concept & original design : Baudouin d'Aumeries
Assistance for programming : Marc-Olivier Méhu
Technical & hardware support : Manuel Goepfert

Contact : metmap@orbifly.com




SOURCES & CREDITS :

   NOAA       Earth
Advisory